createdAt,value
2017-12-25T00:01:42.683Z,5.40
2017-12-25T00:02:43.765Z,5.50
2017-12-25T00:04:37.219Z,5.60
2017-12-25T00:05:34.666Z,5.80
2017-12-25T00:07:31.409Z,5.10
2017-12-25T00:08:30.815Z,5.40
2017-12-25T00:10:25.319Z,5.40
2017-12-25T00:11:24.416Z,5.40
2017-12-25T00:13:18.521Z,5.40
2017-12-25T00:14:17.974Z,5.30
2017-12-25T00:16:10.626Z,5.50
2017-12-25T00:17:11.532Z,5.50
2017-12-25T00:19:03.899Z,4.70
2017-12-25T00:20:04.245Z,5.50
2017-12-25T00:21:57.764Z,5.40
2017-12-25T00:22:56.613Z,5.60
2017-12-25T00:24:52.218Z,5.20
2017-12-25T00:25:52.245Z,5.10
2017-12-25T00:27:44.860Z,5.50
2017-12-25T00:28:45.759Z,5.10
2017-12-25T00:30:39.880Z,5.20
2017-12-25T00:31:39.337Z,5.40
2017-12-25T00:33:31.742Z,5.60
2017-12-25T00:34:32.888Z,5.70
2017-12-25T00:36:26.995Z,5.70
2017-12-25T00:37:26.400Z,5.30
2017-12-25T00:39:18.435Z,5.40
2017-12-25T00:40:19.990Z,5.60
2017-12-25T00:42:14.113Z,5.40
2017-12-25T00:43:13.563Z,5.60
2017-12-25T00:45:07.156Z,5.70
2017-12-25T00:46:07.088Z,5.70
2017-12-25T00:48:01.326Z,5.90
2017-12-25T00:49:00.651Z,5.60
2017-12-25T00:50:52.995Z,5.40
2017-12-25T00:51:54.239Z,5.40
2017-12-25T00:53:48.354Z,5.90
2017-12-25T00:54:47.767Z,5.60
2017-12-25T00:56:40.484Z,5.60
2017-12-25T00:57:41.351Z,5.50
2017-12-25T00:59:34.944Z,5.50
2017-12-25T01:00:34.870Z,5.10
2017-12-25T01:02:29.024Z,5.30
2017-12-25T01:03:28.465Z,5.50
2017-12-25T01:05:22.759Z,5.80
2017-12-25T01:06:22.048Z,6.00
2017-12-25T01:08:14.644Z,5.70
2017-12-25T01:09:15.586Z,5.70
2017-12-25T01:11:09.136Z,5.40
2017-12-25T01:12:09.108Z,5.40
2017-12-25T01:14:01.806Z,4.80
2017-12-25T01:15:02.530Z,5.30
2017-12-25T01:16:56.273Z,5.80
2017-12-25T01:17:56.312Z,5.60
2017-12-25T01:19:48.810Z,5.60
2017-12-25T01:20:49.804Z,5.60
2017-12-25T01:22:42.352Z,4.90
2017-12-25T01:23:43.372Z,5.30
2017-12-25T01:25:36.034Z,5.20
2017-12-25T01:26:36.903Z,5.10
2017-12-25T01:28:30.544Z,4.00
2017-12-25T01:29:30.471Z,4.10
2017-12-25T01:31:23.018Z,3.90
2017-12-25T01:32:24.012Z,3.80
2017-12-25T01:34:18.522Z,3.80
2017-12-25T01:35:17.627Z,3.70
2017-12-25T01:37:10.305Z,3.60
2017-12-25T01:38:11.183Z,3.60
2017-12-25T01:40:02.527Z,3.50
2017-12-25T01:41:04.753Z,3.40
2017-12-25T01:42:57.246Z,3.60
2017-12-25T01:43:58.290Z,3.30
2017-12-25T01:45:50.912Z,3.30
2017-12-25T01:46:50.860Z,3.00
2017-12-25T01:48:45.367Z,3.40
2017-12-25T01:49:45.405Z,3.20
2017-12-25T01:51:36.814Z,2.90
2017-12-25T01:52:38.941Z,3.10
2017-12-25T01:54:32.502Z,3.10
2017-12-25T01:55:32.516Z,3.20
2017-12-25T01:57:25.145Z,3.30
2017-12-25T01:58:26.089Z,3.10
2017-12-25T02:00:19.640Z,3.10
2017-12-25T02:01:18.756Z,3.00
2017-12-25T02:03:12.309Z,3.40
2017-12-25T02:04:13.160Z,3.20
2017-12-25T02:06:06.653Z,3.20
2017-12-25T02:07:06.720Z,3.50
2017-12-25T02:08:57.961Z,3.40
2017-12-25T02:10:01.192Z,3.40
2017-12-25T02:11:54.431Z,3.10
2017-12-25T02:12:53.735Z,3.30
2017-12-25T02:14:44.529Z,3.50
2017-12-25T02:15:47.457Z,3.60
2017-12-25T02:17:40.058Z,4.10
2017-12-25T02:18:41.011Z,4.00
2017-12-25T02:20:33.464Z,4.20
2017-12-25T02:21:33.597Z,4.10
2017-12-25T02:23:27.165Z,5.10
2017-12-25T02:24:28.126Z,4.90
2017-12-25T02:26:21.521Z,4.30
2017-12-25T02:27:21.666Z,4.50
2017-12-25T02:29:15.815Z,5.00
2017-12-25T02:30:15.203Z,4.40
2017-12-25T02:32:06.489Z,4.40
2017-12-25T02:33:08.733Z,4.40
2017-12-25T02:34:59.516Z,4.70
2017-12-25T02:36:02.342Z,4.30
2017-12-25T02:37:55.862Z,4.20
2017-12-25T02:38:55.852Z,4.40
2017-12-25T02:40:48.366Z,4.40
2017-12-25T02:41:49.450Z,4.00
2017-12-25T02:43:43.027Z,4.10
2017-12-25T02:44:41.062Z,3.60
2017-12-25T02:46:35.643Z,4.00
2017-12-25T02:47:36.605Z,4.10
2017-12-25T02:49:30.687Z,4.20
2017-12-25T02:50:30.091Z,3.80
2017-12-25T02:52:23.645Z,4.00
2017-12-25T02:53:23.646Z,3.90
2017-12-25T02:55:17.810Z,3.80
2017-12-25T02:56:17.208Z,3.80
2017-12-25T02:58:10.778Z,4.20
2017-12-25T02:59:10.766Z,4.00
2017-12-25T03:01:03.497Z,4.20
2017-12-25T03:02:04.316Z,4.50
2017-12-25T03:03:57.008Z,4.20
2017-12-25T03:04:57.937Z,4.00
2017-12-25T03:06:51.387Z,4.50
2017-12-25T03:07:51.442Z,4.40
2017-12-25T03:09:44.143Z,4.60
2017-12-25T03:10:45.037Z,4.90
2017-12-25T03:12:38.556Z,4.80
2017-12-25T03:13:37.614Z,4.70
2017-12-25T03:15:31.244Z,4.40
2017-12-25T03:16:32.128Z,4.30
2017-12-25T03:18:25.604Z,5.00
2017-12-25T03:40:33.484Z,5.60
2017-12-25T03:41:33.469Z,5.20
2017-12-25T03:43:27.933Z,4.90
2017-12-25T03:44:27.903Z,4.90
2017-12-25T03:46:22.118Z,5.10
2017-12-25T03:47:21.470Z,4.70
2017-12-25T03:49:15.042Z,5.10
2017-12-25T03:50:15.026Z,5.10
2017-12-25T03:52:09.194Z,4.80
2017-12-25T03:53:07.601Z,5.40
2017-12-25T03:55:02.193Z,5.00
2017-12-25T03:55:59.478Z,5.30
2017-12-25T03:57:54.768Z,5.10
2017-12-25T03:58:55.782Z,5.10
2017-12-25T04:00:48.274Z,5.40
2017-12-25T04:01:49.195Z,5.30
2017-12-25T04:03:41.932Z,5.30
2017-12-25T04:04:42.804Z,5.40
2017-12-25T04:21:56.556Z,5.00
2017-12-25T04:22:57.599Z,4.90
2017-12-25T04:24:51.736Z,4.90
2017-12-25T04:25:51.171Z,4.90
2017-12-25T04:27:44.631Z,5.10
2017-12-25T04:28:44.680Z,4.70
2017-12-25T04:30:36.576Z,4.90
2017-12-25T04:31:38.306Z,5.20
2017-12-25T04:33:30.942Z,4.80
2017-12-25T04:34:31.809Z,5.30
2017-12-25T04:36:25.378Z,4.90
2017-12-25T04:37:24.529Z,4.50
2017-12-25T04:39:18.052Z,4.80
2017-12-25T04:40:18.990Z,5.20
2017-12-25T04:42:09.664Z,5.40
2017-12-25T04:43:12.497Z,5.00
2017-12-25T04:45:04.947Z,5.40
2017-12-25T04:46:06.085Z,5.60
2017-12-25T04:47:57.647Z,5.60
2017-12-25T04:48:59.598Z,5.70
2017-12-25T04:50:52.291Z,5.50
2017-12-25T04:51:52.700Z,5.40
2017-12-25T04:53:46.725Z,6.00
2017-12-25T04:54:45.808Z,5.20
2017-12-25T04:56:39.382Z,5.70
2017-12-25T04:57:41.209Z,5.20
2017-12-25T04:59:33.842Z,4.80
2017-12-25T05:00:33.866Z,4.90
2017-12-25T05:02:28.786Z,5.20
2017-12-25T05:03:27.465Z,5.00
2017-12-25T05:05:20.053Z,5.20
2017-12-25T05:06:20.941Z,5.60
2017-12-25T05:08:13.913Z,5.60
2017-12-25T05:09:14.511Z,5.60
2017-12-25T05:11:07.194Z,5.30
2017-12-25T05:12:08.116Z,5.20
2017-12-25T05:14:01.661Z,4.80
2017-12-25T05:15:01.672Z,4.70
2017-12-25T05:16:54.260Z,4.50
2017-12-25T05:17:55.226Z,4.20
2017-12-25T05:19:45.970Z,3.90
2017-12-25T05:20:48.757Z,4.30
2017-12-25T05:22:41.430Z,4.10
2017-12-25T05:23:42.330Z,3.90
2017-12-25T05:25:34.970Z,4.00
2017-12-25T05:26:35.852Z,4.00
2017-12-25T05:28:29.388Z,3.40
2017-12-25T05:29:29.489Z,3.30
2017-12-25T05:31:22.107Z,3.20
2017-12-25T05:32:23.022Z,3.30
2017-12-25T05:34:16.565Z,3.60
2017-12-25T05:35:16.566Z,3.70
2017-12-25T05:37:09.221Z,3.30
2017-12-25T05:38:10.105Z,3.30
2017-12-25T05:40:03.455Z,3.30
2017-12-25T05:41:03.711Z,3.40
2017-12-25T05:42:56.341Z,3.40
2017-12-25T05:43:57.206Z,3.10
2017-12-25T05:45:50.811Z,3.30
2017-12-25T05:46:50.799Z,3.30
2017-12-25T05:48:44.915Z,2.90
2017-12-25T05:49:44.314Z,2.60
2017-12-25T05:51:37.749Z,3.40
2017-12-25T05:52:37.004Z,3.20
2017-12-25T05:54:30.549Z,3.00
2017-12-25T05:55:31.447Z,3.00
2017-12-25T05:57:24.128Z,2.70
2017-12-25T05:58:25.039Z,2.80
2017-12-25T06:00:18.562Z,2.70
2017-12-25T06:01:18.613Z,2.80
2017-12-25T06:03:11.218Z,2.90
2017-12-25T06:04:12.177Z,2.70
2017-12-25T06:06:05.706Z,2.50
2017-12-25T06:07:05.753Z,2.80
2017-12-25T06:08:58.269Z,3.00
2017-12-25T06:09:59.272Z,3.10
2017-12-25T06:11:52.751Z,3.30
2017-12-25T06:12:52.777Z,3.40
2017-12-25T06:14:45.376Z,3.50
2017-12-25T06:15:46.381Z,3.50
2017-12-25T06:17:39.954Z,3.90
2017-12-25T06:18:39.898Z,3.60
2017-12-25T06:20:32.610Z,3.90
2017-12-25T06:21:33.474Z,3.90
2017-12-25T06:23:27.070Z,4.00
2017-12-25T06:24:27.099Z,4.10
2017-12-25T06:26:18.342Z,4.50
2017-12-25T06:27:20.534Z,4.80
2017-12-25T06:29:12.290Z,4.50
2017-12-25T06:30:14.142Z,4.60
2017-12-25T06:32:05.917Z,5.00
2017-12-25T06:33:07.735Z,5.30
2017-12-25T06:35:01.284Z,5.00
2017-12-25T06:36:00.350Z,5.00
2017-12-25T06:37:55.412Z,4.80
2017-12-25T06:38:54.914Z,4.90
2017-12-25T06:40:48.430Z,4.80
2017-12-25T06:41:48.467Z,4.70
2017-12-25T06:43:40.325Z,5.00
2017-12-25T06:44:41.973Z,5.30
2017-12-25T06:46:34.605Z,5.60
2017-12-25T06:47:35.524Z,5.20
2017-12-25T06:49:28.957Z,4.90
2017-12-25T06:50:28.319Z,4.80
2017-12-25T06:52:21.697Z,5.40
2017-12-25T06:53:22.642Z,5.00
2017-12-25T06:55:16.156Z,4.70
2017-12-25T06:56:16.213Z,4.60
2017-12-25T06:58:08.696Z,4.70
2017-12-25T06:59:09.808Z,4.90
2017-12-25T07:02:03.283Z,4.40
2017-12-25T07:03:55.937Z,5.00
2017-12-25T07:04:56.873Z,4.80
2017-12-25T07:06:50.451Z,4.10
2017-12-25T07:07:50.397Z,4.30
2017-12-25T07:09:43.046Z,4.40
2017-12-25T07:10:44.012Z,4.20
2017-12-25T07:12:37.550Z,4.30
2017-12-25T07:13:37.565Z,4.30
2017-12-25T07:15:30.208Z,4.20
2017-12-25T07:16:31.166Z,4.40
2017-12-25T07:18:21.733Z,4.40
2017-12-25T07:19:24.653Z,4.20
2017-12-25T07:21:17.162Z,4.10
2017-12-25T07:22:18.216Z,4.20
2017-12-25T07:24:11.664Z,4.20
2017-12-25T07:25:11.785Z,4.70
2017-12-25T07:27:04.404Z,4.70
2017-12-25T07:28:05.378Z,4.50
2017-12-25T07:29:58.893Z,4.50
2017-12-25T07:30:58.864Z,4.60
2017-12-25T07:32:51.533Z,4.60
2017-12-25T07:33:52.441Z,4.30
2017-12-25T07:35:43.124Z,4.40
2017-12-25T07:36:45.982Z,4.40
2017-12-25T07:38:40.144Z,4.90
2017-12-25T07:39:39.615Z,4.50
2017-12-25T07:41:33.149Z,4.40
2017-12-25T07:42:33.156Z,4.00
2017-12-25T07:44:23.883Z,4.60
2017-12-25T08:05:03.186Z,4.10
2017-12-25T08:06:04.023Z,4.10
2017-12-25T08:07:56.575Z,4.30
2017-12-25T08:08:57.626Z,4.40
2017-12-25T08:10:51.781Z,4.20
2017-12-25T08:11:51.184Z,4.60
2017-12-25T08:13:44.787Z,4.10
2017-12-25T08:14:44.736Z,4.50
2017-12-25T08:36:32.646Z,4.50
2017-12-25T08:37:33.588Z,4.60
2017-12-25T08:39:24.254Z,5.00
2017-12-25T08:40:27.201Z,4.80
2017-12-25T08:42:19.668Z,4.90
2017-12-25T08:43:20.778Z,4.90
2017-12-25T08:45:11.362Z,4.40
2017-12-25T08:46:14.296Z,4.60
2017-12-25T08:48:06.960Z,4.80
2017-12-25T08:49:07.847Z,4.50
2017-12-25T08:51:01.466Z,4.80
2017-12-25T08:52:01.372Z,4.30
2017-12-25T08:53:55.558Z,4.50
2017-12-25T08:54:54.939Z,4.40
2017-12-25T08:56:46.800Z,4.40
2017-12-25T08:57:48.532Z,4.40
2017-12-25T08:59:41.197Z,4.10
2017-12-25T09:00:42.093Z,4.40
2017-12-25T09:02:34.646Z,4.30
2017-12-25T09:03:35.610Z,4.00
2017-12-25T09:05:29.165Z,3.70
2017-12-25T09:06:29.175Z,3.40
2017-12-25T09:08:21.736Z,3.80
2017-12-25T09:09:22.717Z,4.00
2017-12-25T09:11:14.696Z,3.60
2017-12-25T09:12:16.338Z,3.70
2017-12-25T09:14:06.973Z,4.00
2017-12-25T09:15:09.842Z,3.70
2017-12-25T09:17:02.530Z,3.80
2017-12-25T09:18:03.467Z,3.50
2017-12-25T09:19:57.863Z,3.60
2017-12-25T09:20:56.964Z,3.60
2017-12-25T09:22:48.133Z,3.40
2017-12-25T09:23:50.579Z,3.50
2017-12-25T09:25:44.077Z,3.60
2017-12-25T09:26:44.096Z,3.10
2017-12-25T09:28:36.818Z,3.40
2017-12-25T09:29:37.671Z,3.50
2017-12-25T09:31:28.420Z,3.10
2017-12-25T09:32:31.189Z,3.20
2017-12-25T09:34:24.746Z,2.80
2017-12-25T09:35:24.844Z,2.90
2017-12-25T09:37:17.416Z,2.80
2017-12-25T09:38:18.356Z,2.90
2017-12-25T09:40:11.867Z,2.80
2017-12-25T09:41:11.873Z,2.90
2017-12-25T09:43:04.665Z,2.90
2017-12-25T09:44:05.436Z,3.30
2017-12-25T09:45:57.132Z,3.10
2017-12-25T09:46:59.057Z,2.80
2017-12-25T09:48:49.771Z,2.80
2017-12-25T09:49:52.586Z,2.80
2017-12-25T09:51:45.204Z,2.60
2017-12-25T09:52:46.143Z,2.60
2017-12-25T09:54:39.719Z,2.30
2017-12-25T09:55:39.711Z,2.40
2017-12-25T09:57:32.176Z,2.50
2017-12-25T09:58:33.250Z,2.10
2017-12-25T10:00:26.873Z,2.20
2017-12-25T10:01:26.738Z,2.30
2017-12-25T10:03:21.780Z,2.30
2017-12-25T10:04:20.364Z,2.40
2017-12-25T10:06:14.807Z,2.60
2017-12-25T10:07:13.903Z,2.60
2017-12-25T10:09:06.591Z,2.90
2017-12-25T10:10:07.467Z,2.30
2017-12-25T10:12:01.076Z,2.60
2017-12-25T10:13:01.121Z,2.60
2017-12-25T10:14:55.163Z,2.90
2017-12-25T10:15:54.578Z,2.80
2017-12-25T10:17:48.207Z,3.00
2017-12-25T10:18:50.375Z,2.80
2017-12-25T10:20:40.816Z,2.70
2017-12-25T10:21:41.685Z,2.90
2017-12-25T10:23:34.252Z,3.20
2017-12-25T10:24:35.268Z,3.00
2017-12-25T10:26:27.918Z,3.60
2017-12-25T10:27:28.878Z,3.40
2017-12-25T10:29:19.529Z,3.40
2017-12-25T10:30:22.412Z,3.40
2017-12-25T10:32:15.017Z,3.80
2017-12-25T10:33:15.954Z,3.90
2017-12-25T10:35:09.389Z,3.60
2017-12-25T10:36:06.822Z,3.80
2017-12-25T10:38:01.963Z,3.60
2017-12-25T10:39:03.039Z,3.80
2017-12-25T10:40:56.444Z,3.90
2017-12-25T10:41:56.604Z,3.50
2017-12-25T10:43:49.320Z,3.80
2017-12-25T10:44:50.200Z,3.80
2017-12-25T10:46:43.701Z,3.40
2017-12-25T10:47:43.771Z,3.20
2017-12-25T10:49:36.268Z,3.40
2017-12-25T10:50:37.314Z,3.20
2017-12-25T10:52:30.877Z,3.20
2017-12-25T10:53:28.844Z,3.10
2017-12-25T10:55:23.510Z,3.30
2017-12-25T10:56:24.467Z,3.10
2017-12-25T10:58:17.391Z,2.80
2017-12-25T10:59:18.000Z,2.80
2017-12-25T11:01:11.506Z,3.20
2017-12-25T11:02:11.563Z,3.00
2017-12-25T11:04:04.024Z,2.70
2017-12-25T11:05:05.085Z,2.80
2017-12-25T11:06:58.719Z,2.60
2017-12-25T11:07:58.700Z,2.60
2017-12-25T11:09:52.769Z,2.70
2017-12-25T11:10:51.835Z,2.70
2017-12-25T11:12:45.748Z,3.40
2017-12-25T11:13:45.743Z,3.10
2017-12-25T11:15:38.388Z,3.20
2017-12-25T11:16:39.399Z,2.90
2017-12-25T11:18:32.936Z,3.10
2017-12-25T11:19:32.917Z,2.80
2017-12-25T11:21:25.569Z,3.00
2017-12-25T11:22:26.496Z,3.10
2017-12-25T11:24:19.939Z,3.00
2017-12-25T11:25:20.039Z,2.80
2017-12-25T11:27:12.691Z,2.60
2017-12-25T11:28:13.583Z,2.90
2017-12-25T11:30:07.125Z,2.80
2017-12-25T11:31:07.163Z,2.60
2017-12-25T11:32:59.792Z,3.10
2017-12-25T11:34:00.665Z,3.20
2017-12-25T11:35:53.333Z,3.60
2017-12-25T11:36:54.215Z,3.50
2017-12-25T11:38:46.861Z,3.20
2017-12-25T11:39:47.780Z,3.60
2017-12-25T11:41:41.383Z,3.30
2017-12-25T11:42:41.388Z,3.60
2017-12-25T11:44:33.994Z,3.40
2017-12-25T11:45:34.974Z,3.50
2017-12-25T11:47:27.551Z,3.50
2017-12-25T11:48:28.461Z,3.80
2017-12-25T11:50:21.146Z,3.90
2017-12-25T11:51:22.022Z,3.70
2017-12-25T11:53:13.531Z,3.80
2017-12-25T11:54:15.595Z,3.60
2017-12-25T11:56:09.732Z,3.90
2017-12-25T11:59:02.707Z,4.10
2017-12-25T12:00:02.730Z,3.70
2017-12-25T12:01:55.354Z,3.60
2017-12-25T12:02:56.254Z,3.70
2017-12-25T12:04:49.820Z,3.60
2017-12-25T12:05:49.883Z,3.70
2017-12-25T12:07:42.505Z,4.00
2017-12-25T12:08:43.407Z,4.00
2017-12-25T12:10:36.013Z,4.30
2017-12-25T12:11:36.943Z,4.10
2017-12-25T12:13:30.514Z,4.30
2017-12-25T12:14:30.493Z,4.40
2017-12-25T12:16:23.137Z,4.20
2017-12-25T12:17:24.062Z,4.10
2017-12-25T12:19:16.611Z,4.10
2017-12-25T12:20:17.608Z,4.20
2017-12-25T12:22:11.241Z,4.20
2017-12-25T12:23:11.243Z,4.20
2017-12-25T12:25:03.844Z,4.30
2017-12-25T12:26:04.782Z,4.30
2017-12-25T12:27:56.178Z,4.00
2017-12-25T12:28:58.287Z,4.00
2017-12-25T12:30:50.946Z,3.70
2017-12-25T12:31:51.892Z,3.90
2017-12-25T12:33:45.415Z,3.60
2017-12-25T12:34:45.397Z,3.60
2017-12-25T12:36:38.099Z,3.70
2017-12-25T12:37:39.019Z,3.70
2017-12-25T12:39:32.521Z,3.50
2017-12-25T12:40:32.560Z,3.50
2017-12-25T12:42:25.194Z,3.50
2017-12-25T12:43:26.128Z,3.50
2017-12-25T12:45:17.456Z,3.50
2017-12-25T12:46:19.672Z,3.50
2017-12-25T12:48:12.271Z,3.70
2017-12-25T12:49:13.291Z,3.70
2017-12-25T12:51:06.699Z,4.10
2017-12-25T12:52:06.749Z,3.50
2017-12-25T12:53:58.039Z,3.50
2017-12-25T12:55:00.367Z,3.80
2017-12-25T12:56:53.004Z,3.80
2017-12-25T12:57:53.918Z,3.60
2017-12-25T12:59:46.394Z,3.80
2017-12-25T13:00:47.485Z,3.90
2017-12-25T13:02:38.893Z,4.10
2017-12-25T13:03:41.010Z,3.90
2017-12-25T13:05:35.144Z,3.90
2017-12-25T13:06:34.644Z,4.00
2017-12-25T13:08:28.148Z,4.00
2017-12-25T13:09:28.155Z,3.90
2017-12-25T13:11:20.785Z,3.60
2017-12-25T13:12:21.712Z,3.90
2017-12-25T13:14:15.240Z,3.50
2017-12-25T13:15:15.234Z,3.60
2017-12-25T13:17:07.901Z,3.70
2017-12-25T13:18:08.847Z,3.60
2017-12-25T13:20:01.335Z,3.40
2017-12-25T13:21:02.399Z,3.50
2017-12-25T13:22:55.895Z,3.60
2017-12-25T13:23:55.936Z,4.00
2017-12-25T13:25:48.565Z,3.50
2017-12-25T13:26:49.499Z,3.50
2017-12-25T13:28:43.065Z,3.30
2017-12-25T13:29:43.027Z,3.30
2017-12-25T13:31:35.558Z,3.30
2017-12-25T13:32:33.961Z,3.60
2017-12-25T13:34:30.187Z,3.30
2017-12-25T13:35:30.138Z,3.50
2017-12-25T13:37:22.827Z,3.20
2017-12-25T13:38:23.696Z,3.40
2017-12-25T13:40:17.294Z,3.50
2017-12-25T13:41:17.266Z,3.50
2017-12-25T13:43:09.936Z,2.80
2017-12-25T13:44:10.836Z,3.00
2017-12-25T13:46:04.327Z,2.90
2017-12-25T13:47:04.544Z,2.80
2017-12-25T13:48:57.023Z,3.00
2017-12-25T13:49:55.273Z,3.10
2017-12-25T13:51:51.544Z,3.30
2017-12-25T13:52:51.534Z,3.00
2017-12-25T13:54:44.197Z,2.90
2017-12-25T13:55:45.100Z,2.90
2017-12-25T13:57:38.637Z,2.80
2017-12-25T13:58:38.635Z,2.80
2017-12-25T14:00:32.101Z,3.00
2017-12-25T14:01:32.194Z,2.90
2017-12-25T14:03:25.791Z,3.00
2017-12-25T14:04:25.772Z,3.20
2017-12-25T14:06:18.448Z,3.30
2017-12-25T14:07:19.360Z,3.50
2017-12-25T14:09:12.878Z,2.70
2017-12-25T14:10:13.014Z,2.90
2017-12-25T14:12:05.521Z,3.00
2017-12-25T14:13:06.429Z,3.20
2017-12-25T14:15:00.013Z,2.90
2017-12-25T14:16:00.020Z,3.00
2017-12-25T14:17:52.666Z,3.00
2017-12-25T14:18:53.582Z,3.30
2017-12-25T14:20:47.018Z,3.40
2017-12-25T14:21:47.101Z,3.30
2017-12-25T14:23:39.837Z,2.90
2017-12-25T14:24:40.703Z,3.40
2017-12-25T14:26:33.268Z,3.20
2017-12-25T14:27:34.232Z,3.40
2017-12-25T14:29:26.841Z,3.90
2017-12-25T14:30:27.824Z,3.70
2017-12-25T14:32:19.088Z,3.60
2017-12-25T14:33:21.321Z,3.50
2017-12-25T14:35:14.010Z,3.70
2017-12-25T14:36:14.930Z,3.30
2017-12-25T14:38:08.442Z,3.80
2017-12-25T14:39:08.495Z,3.90
2017-12-25T14:41:01.464Z,3.80
2017-12-25T14:42:01.984Z,3.50
2017-12-25T14:43:57.966Z,3.40
2017-12-25T14:44:55.637Z,3.50
2017-12-25T14:46:49.690Z,3.60
2017-12-25T14:47:49.114Z,3.60
2017-12-25T15:08:25.716Z,4.10
2017-12-25T15:09:07.392Z,3.90
2017-12-25T15:10:58.911Z,3.90
2017-12-25T15:12:00.995Z,3.90
2017-12-25T15:13:53.546Z,3.70
2017-12-25T15:14:54.456Z,3.90
2017-12-25T15:16:46.880Z,3.80
2017-12-25T15:17:48.052Z,3.50
2017-12-25T15:19:40.685Z,3.70
2017-12-25T15:20:41.640Z,3.40
2017-12-25T15:22:35.048Z,4.00
2017-12-25T15:23:33.194Z,4.00
2017-12-25T15:25:27.803Z,3.60
2017-12-25T15:26:28.742Z,3.60
2017-12-25T15:28:22.296Z,3.60
2017-12-25T15:29:22.288Z,3.60
2017-12-25T15:31:14.953Z,3.60
2017-12-25T15:32:15.859Z,3.70
2017-12-25T15:34:09.393Z,3.90
2017-12-25T15:35:09.375Z,3.70
2017-12-25T15:37:03.584Z,3.40
2017-12-25T15:38:02.987Z,3.40
2017-12-25T15:39:55.535Z,3.50
2017-12-25T15:40:54.957Z,3.50
2017-12-25T15:42:50.073Z,3.60
2017-12-25T15:43:50.088Z,3.50
2017-12-25T15:45:42.759Z,3.50
2017-12-25T15:46:43.597Z,3.30
2017-12-25T15:48:36.168Z,3.30
2017-12-25T15:49:37.208Z,3.40
2017-12-25T15:51:30.726Z,3.70
2017-12-25T15:52:30.768Z,3.50
2017-12-25T15:54:23.416Z,3.70
2017-12-25T15:55:24.457Z,3.50
2017-12-25T15:57:16.962Z,3.40
2017-12-25T15:58:15.165Z,3.40
2017-12-25T16:00:10.486Z,3.00
2017-12-25T16:01:11.407Z,3.20
2017-12-25T16:03:04.982Z,3.10
2017-12-25T16:04:04.942Z,3.20
2017-12-25T16:05:57.587Z,2.80
2017-12-25T16:06:58.580Z,2.80
2017-12-25T16:08:52.080Z,2.90
2017-12-25T16:09:52.068Z,2.90
2017-12-25T16:11:44.813Z,2.90
2017-12-25T16:12:45.716Z,2.70
2017-12-25T16:14:39.198Z,3.40
2017-12-25T16:15:36.525Z,3.50
2017-12-25T16:17:31.827Z,3.90
2017-12-25T16:18:32.772Z,3.80
2017-12-25T16:20:26.888Z,3.70
2017-12-25T16:21:26.307Z,3.60
2017-12-25T16:23:20.027Z,3.40
2017-12-25T16:24:19.904Z,3.30
2017-12-25T16:26:12.560Z,3.20
2017-12-25T16:27:13.412Z,3.50
2017-12-25T16:29:06.099Z,3.10
2017-12-25T16:30:06.972Z,3.50
2017-12-25T16:32:00.549Z,3.30
2017-12-25T16:33:00.586Z,2.90
2017-12-25T16:34:53.172Z,3.10
2017-12-25T16:35:54.089Z,3.20
2017-12-25T16:37:47.686Z,3.30
2017-12-25T16:38:47.679Z,3.10
2017-12-25T16:40:40.358Z,3.70
2017-12-25T16:41:41.223Z,3.50
2017-12-25T16:43:34.801Z,3.30
2017-12-25T16:44:34.789Z,3.20
2017-12-25T16:46:27.537Z,3.40
2017-12-25T16:47:28.334Z,3.10
2017-12-25T16:49:21.831Z,3.20
2017-12-25T16:50:21.900Z,3.00
2017-12-25T16:52:14.626Z,3.20
2017-12-25T16:53:15.464Z,3.20
2017-12-25T16:55:09.024Z,3.20
2017-12-25T16:56:09.033Z,3.50
2017-12-25T16:58:01.675Z,3.00
2017-12-25T16:59:02.640Z,3.10
2017-12-25T17:00:56.177Z,3.10
2017-12-25T17:01:56.191Z,3.00
2017-12-25T17:03:48.570Z,3.20
2017-12-25T17:04:49.697Z,3.10
2017-12-25T17:06:43.243Z,3.20
2017-12-25T17:07:43.295Z,3.00
2017-12-25T17:09:35.929Z,3.20
2017-12-25T17:10:36.795Z,3.20
2017-12-25T17:12:30.370Z,3.50
2017-12-25T17:13:29.570Z,4.10
2017-12-25T17:15:21.743Z,3.20
2017-12-25T17:16:23.907Z,3.20
2017-12-25T17:18:17.436Z,3.30
2017-12-25T17:19:17.460Z,3.10
2017-12-25T17:21:10.114Z,3.80
2017-12-25T17:22:11.036Z,4.10
2017-12-25T17:24:02.668Z,2.90
2017-12-25T17:25:04.601Z,3.00
2017-12-25T17:26:57.137Z,2.90
2017-12-25T17:27:58.128Z,2.90
2017-12-25T17:29:51.624Z,3.00
2017-12-25T17:30:51.697Z,3.20
2017-12-25T17:32:42.493Z,3.30
2017-12-25T17:33:45.293Z,3.40
2017-12-25T17:35:38.814Z,3.30
2017-12-25T17:36:38.853Z,3.20
2017-12-25T17:38:31.492Z,3.40
2017-12-25T17:39:32.428Z,3.30
2017-12-25T17:41:25.991Z,3.50
2017-12-25T17:42:25.941Z,7.50
2017-12-25T17:44:18.625Z,3.40
2017-12-25T17:45:19.528Z,3.40
2017-12-25T17:47:13.121Z,3.50
2017-12-25T17:48:13.078Z,3.50
2017-12-25T17:50:03.818Z,3.50
2017-12-25T17:51:06.606Z,3.60
2017-12-25T17:53:00.190Z,3.80
2017-12-25T17:54:00.224Z,3.60
2017-12-25T17:55:52.808Z,3.80
2017-12-25T17:56:53.729Z,4.10
2017-12-25T17:58:47.902Z,3.90
2017-12-25T17:59:47.317Z,3.80
2017-12-25T18:01:39.920Z,4.00
2017-12-25T18:02:40.866Z,4.10
2017-12-25T18:04:34.430Z,3.80
2017-12-25T18:05:34.438Z,3.80
2017-12-25T18:07:26.941Z,4.20
2017-12-25T18:08:27.996Z,4.30
2017-12-25T18:10:21.595Z,4.50
2017-12-25T18:11:21.499Z,4.50
2017-12-25T18:13:14.201Z,4.50
2017-12-25T18:14:15.064Z,4.60
2017-12-25T18:16:07.723Z,4.30
2017-12-25T18:17:08.644Z,4.60
2017-12-25T18:19:02.249Z,4.60
2017-12-25T18:20:00.234Z,4.70
2017-12-25T18:21:54.650Z,4.10
2017-12-25T18:22:55.779Z,4.10
2017-12-25T18:24:49.182Z,4.10
2017-12-25T18:25:49.287Z,3.80
2017-12-25T18:27:41.955Z,4.20
2017-12-25T18:28:42.845Z,4.20
2017-12-25T18:30:36.421Z,5.00
2017-12-25T18:32:47.588Z,5.30
2017-12-25T18:33:49.874Z,5.30
2017-12-25T18:35:42.548Z,5.60
2017-12-25T18:36:43.397Z,5.60
2017-12-25T18:38:36.923Z,5.90
2017-12-25T18:39:36.940Z,5.80
2017-12-25T18:41:29.591Z,6.00
2017-12-25T18:42:30.481Z,5.90
2017-12-25T18:44:23.151Z,6.10
2017-12-25T18:45:24.143Z,6.30
2017-12-25T18:47:14.833Z,6.00
2017-12-25T18:48:17.647Z,6.80
2017-12-25T18:50:10.696Z,6.40
2017-12-25T18:51:11.312Z,6.30
2017-12-25T18:53:04.718Z,6.60
2017-12-25T18:54:04.705Z,6.80
2017-12-25T18:55:57.391Z,6.80
2017-12-25T18:56:58.333Z,7.00
2017-12-25T18:58:51.866Z,6.60
2017-12-25T18:59:51.828Z,6.50
2017-12-25T19:01:44.510Z,7.10
2017-12-25T19:02:45.397Z,6.80
2017-12-25T19:04:36.093Z,6.40
2017-12-25T19:05:39.010Z,5.90
2017-12-25T19:07:31.670Z,6.40
2017-12-25T19:08:32.510Z,6.10
2017-12-25T19:10:23.322Z,6.00
2017-12-25T19:11:26.122Z,6.10
2017-12-25T19:13:20.227Z,7.90
2017-12-25T19:14:19.633Z,6.30
2017-12-25T19:16:13.233Z,5.80
2017-12-25T19:17:13.219Z,6.20
2017-12-25T19:19:05.814Z,5.60
2017-12-25T19:20:06.755Z,6.50
2017-12-25T19:21:57.434Z,6.10
2017-12-25T19:23:00.290Z,6.20
2017-12-25T19:24:52.994Z,6.40
2017-12-25T19:25:53.889Z,6.60
2017-12-25T19:27:47.606Z,5.80
2017-12-25T19:28:47.417Z,5.90
2017-12-25T19:30:41.629Z,5.30
2017-12-25T19:31:41.011Z,5.40
2017-12-25T19:33:34.554Z,5.50
2017-12-25T19:34:34.590Z,5.10
2017-12-25T19:36:27.291Z,5.70
2017-12-25T19:37:28.097Z,6.00
2017-12-25T19:39:21.414Z,3.80
2017-12-25T19:40:21.693Z,3.70
2017-12-25T19:42:14.338Z,4.80
2017-12-25T19:43:15.205Z,4.40
2017-12-25T19:45:07.917Z,4.60
2017-12-25T19:46:08.800Z,5.50
2017-12-25T19:48:02.320Z,4.70
2017-12-25T19:49:02.468Z,4.10
2017-12-25T19:50:54.807Z,4.40
2017-12-25T19:51:54.038Z,5.00
2017-12-25T19:53:49.413Z,4.70
2017-12-25T19:54:49.479Z,4.10
2017-12-25T19:56:42.101Z,4.60
2017-12-25T19:57:42.329Z,4.80
2017-12-25T19:59:36.660Z,5.00
2017-12-25T20:00:36.537Z,4.70
2017-12-25T20:02:27.996Z,4.70
2017-12-25T20:03:31.545Z,4.40
2017-12-25T20:05:23.690Z,4.90
2017-12-25T20:06:23.649Z,5.10
2017-12-25T20:08:16.334Z,4.70
2017-12-25T20:09:14.567Z,4.60
2017-12-25T20:11:10.816Z,5.00
2017-12-25T20:12:10.778Z,5.00
2017-12-25T20:14:04.998Z,5.30
2017-12-25T20:15:04.357Z,5.10
2017-12-25T20:16:57.923Z,5.00
2017-12-25T20:17:57.897Z,5.00
2017-12-25T20:19:48.634Z,5.10
2017-12-25T20:20:51.471Z,4.90
2017-12-25T20:22:42.176Z,4.60
2017-12-25T20:23:45.044Z,4.90
2017-12-25T20:25:37.691Z,4.90
2017-12-25T20:26:36.568Z,4.90
2017-12-25T20:28:31.254Z,4.60
2017-12-25T20:29:32.128Z,4.70
2017-12-25T20:31:25.685Z,5.00
2017-12-25T20:32:25.744Z,4.90
2017-12-25T20:34:18.375Z,5.20
2017-12-25T20:35:19.275Z,5.20
2017-12-25T20:37:12.740Z,4.60
2017-12-25T20:38:12.271Z,4.60
2017-12-25T20:40:04.212Z,4.70
2017-12-25T20:41:06.333Z,4.90
2017-12-25T20:42:57.101Z,4.20
2017-12-25T20:43:59.953Z,4.00
2017-12-25T20:45:52.577Z,5.00
2017-12-25T20:46:53.458Z,4.90
2017-12-25T20:48:47.960Z,5.10
2017-12-25T20:49:47.022Z,5.00
2017-12-25T20:51:39.209Z,6.10
2017-12-25T20:52:40.280Z,5.60